Time;durP1;ratioP1;P1;durP2;ratioP2;P2;SDS_P1;SDS_P2;PMS_P1;PMS_P2;Temp;Humidity;BMP_temperature;BMP_pressure;BME280_temperature;BME280_humidity;BME280_pressure;Samples;Min_cycle;Max_cycle;Signal;HPM_P1;HPM_P2
2021/09/20 00:00:11;;;;;;;6.23;5.63;;;12.60;99.90;;;;;;5085275;28;20517;-37
2021/09/20 00:02:37;;;;;;;8.80;5.70;;;12.60;99.90;;;;;;5085821;28;20425;-38
2021/09/20 00:05:04;;;;;;;6.17;5.57;;;12.60;99.90;;;;;;5085723;28;20423;-38
2021/09/20 00:07:30;;;;;;;6.57;5.83;;;12.70;99.90;;;;;;5085759;28;20468;-38
2021/09/20 00:09:56;;;;;;;12.87;6.60;;;12.80;99.90;;;;;;5073440;28;20470;-38
2021/09/20 00:12:21;;;;;;;6.97;6.10;;;12.80;99.90;;;;;;5085368;28;20832;-38
2021/09/20 00:14:47;;;;;;;6.80;6.20;;;12.80;99.90;;;;;;5085371;28;20180;-38
2021/09/20 00:17:13;;;;;;;6.80;6.10;;;12.80;99.90;;;;;;5084613;28;20192;-39
2021/09/20 00:19:38;;;;;;;7.20;5.97;;;12.80;99.90;;;;;;5085041;28;20197;-37
2021/09/20 00:22:04;;;;;;;6.73;5.90;;;12.80;99.90;;;;;;5083929;28;20215;-37
2021/09/20 00:24:30;;;;;;;7.10;6.40;;;12.80;99.90;;;;;;5079025;28;20281;-37
2021/09/20 00:26:55;;;;;;;5.93;5.43;;;12.80;99.90;;;;;;5085474;28;20203;-38
2021/09/20 00:29:21;;;;;;;8.03;5.90;;;12.80;99.90;;;;;;5085142;28;20563;-38
2021/09/20 00:31:47;;;;;;;6.90;5.97;;;12.70;99.90;;;;;;5089059;28;20196;-38
2021/09/20 00:34:12;;;;;;;10.17;6.37;;;12.70;99.90;;;;;;5089427;28;20216;-37
2021/09/20 00:36:38;;;;;;;7.03;5.30;;;12.60;99.90;;;;;;5089266;28;20200;-38
2021/09/20 00:39:04;;;;;;;7.33;6.50;;;12.70;99.90;;;;;;5083370;28;20188;-37
2021/09/20 00:41:30;;;;;;;8.30;6.97;;;12.70;99.90;;;;;;5085098;28;20192;-37
2021/09/20 00:43:57;;;;;;;6.70;6.10;;;12.70;99.90;;;;;;5089378;28;20199;-38
2021/09/20 00:46:22;;;;;;;8.60;6.70;;;12.70;99.90;;;;;;5089340;28;20491;-37
2021/09/20 00:48:48;;;;;;;7.97;6.30;;;12.70;99.90;;;;;;5089125;28;20856;-38
2021/09/20 00:51:13;;;;;;;8.07;7.27;;;12.70;99.90;;;;;;5087125;28;20204;-37
2021/09/20 00:53:39;;;;;;;8.43;7.20;;;12.70;99.90;;;;;;5085960;28;20212;-38
2021/09/20 00:56:06;;;;;;;8.07;6.80;;;12.70;99.90;;;;;;5081339;28;20209;-38
2021/09/20 00:58:32;;;;;;;7.03;6.23;;;12.80;99.90;;;;;;5088639;28;20180;-37
2021/09/20 01:01:00;;;;;;;8.00;6.67;;;12.70;99.90;;;;;;5088459;28;20505;-37
2021/09/20 01:03:26;;;;;;;7.30;6.60;;;12.80;99.90;;;;;;5087434;28;20476;-37
2021/09/20 01:05:52;;;;;;;7.97;7.03;;;12.70;99.90;;;;;;5088970;28;20453;-38
2021/09/20 01:08:18;;;;;;;8.50;7.57;;;12.80;99.90;;;;;;5087372;28;20845;-38
2021/09/20 01:10:43;;;;;;;9.07;6.70;;;12.80;99.90;;;;;;5078531;28;20311;-38
2021/09/20 01:13:09;;;;;;;8.73;7.10;;;12.80;99.90;;;;;;5087856;28;20512;-38
2021/09/20 01:15:35;;;;;;;8.03;7.23;;;12.80;99.90;;;;;;5077564;28;20218;-38
2021/09/20 01:18:01;;;;;;;9.03;8.13;;;12.80;99.90;;;;;;5085028;28;20418;-37
2021/09/20 01:20:27;;;;;;;9.80;7.10;;;12.90;99.90;;;;;;5087482;28;20647;-37
2021/09/20 01:23:03;;;;;;;7.33;6.63;;;12.80;99.90;;;;;;5088837;28;20192;-37
2021/09/20 01:25:30;;;;;;;8.23;7.30;;;12.80;99.90;;;;;;5079443;28;20473;-38
2021/09/20 01:27:57;;;;;;;9.90;6.83;;;12.80;99.90;;;;;;5088217;28;20442;-38
2021/09/20 01:30:23;;;;;;;9.17;7.17;;;12.80;99.90;;;;;;5087751;28;20850;-38
2021/09/20 01:32:49;;;;;;;11.43;7.13;;;12.80;99.90;;;;;;5088270;28;20461;-38
2021/09/20 01:35:20;;;;;;;8.00;6.90;;;12.80;99.90;;;;;;5088299;28;20487;-38
2021/09/20 01:37:46;;;;;;;10.30;7.73;;;12.90;99.90;;;;;;5088114;28;20430;-38
2021/09/20 01:40:13;;;;;;;7.33;6.60;;;12.90;99.90;;;;;;5078307;28;20437;-37
2021/09/20 01:42:40;;;;;;;7.57;6.80;;;12.90;99.90;;;;;;5088079;28;20761;-38
2021/09/20 01:45:07;;;;;;;8.70;7.50;;;12.90;99.90;;;;;;5088291;28;20931;-37
2021/09/20 01:47:32;;;;;;;8.47;7.10;;;12.80;99.90;;;;;;5087626;28;20458;-38
2021/09/20 01:49:58;;;;;;;9.20;7.50;;;12.80;99.90;;;;;;5087399;28;20475;-37
2021/09/20 01:52:24;;;;;;;9.10;7.53;;;12.80;99.90;;;;;;5088122;28;20584;-38
2021/09/20 01:54:50;;;;;;;8.00;7.20;;;12.90;99.90;;;;;;5076925;28;20190;-37
2021/09/20 01:57:17;;;;;;;9.13;7.70;;;12.90;99.90;;;;;;5086648;28;20451;-38
2021/09/20 01:59:42;;;;;;;7.80;7.00;;;12.90;99.90;;;;;;5087046;28;20242;-37
2021/09/20 02:02:08;;;;;;;8.27;7.43;;;12.90;99.90;;;;;;5087560;28;20434;-38
2021/09/20 02:04:34;;;;;;;11.63;7.67;;;12.90;99.90;;;;;;5088152;28;20242;-38
2021/09/20 02:06:59;;;;;;;7.20;6.50;;;12.90;99.90;;;;;;5087608;28;20196;-38
2021/09/20 02:09:25;;;;;;;9.23;7.30;;;12.90;99.90;;;;;;5080676;28;20207;-37
2021/09/20 02:11:51;;;;;;;9.00;6.57;;;12.90;99.90;;;;;;5079748;28;20192;-37
2021/09/20 02:14:16;;;;;;;9.07;7.70;;;12.90;99.90;;;;;;5085141;28;20269;-38
2021/09/20 02:16:42;;;;;;;9.17;7.90;;;12.90;99.90;;;;;;5072698;28;20192;-37
2021/09/20 02:19:09;;;;;;;8.67;6.80;;;12.90;99.90;;;;;;5086736;28;20220;-38
2021/09/20 02:21:35;;;;;;;9.90;7.37;;;12.90;99.90;;;;;;5087157;28;20196;-38
2021/09/20 02:24:00;;;;;;;7.87;7.07;;;12.90;99.90;;;;;;5085437;28;20470;-38
2021/09/20 02:26:26;;;;;;;8.50;7.07;;;12.80;99.90;;;;;;5081056;28;21017;-38
2021/09/20 02:28:52;;;;;;;8.80;7.90;;;12.80;99.90;;;;;;5086653;28;20192;-37
2021/09/20 02:31:19;;;;;;;9.17;7.63;;;12.80;99.90;;;;;;5086657;28;20228;-37
2021/09/20 02:33:45;;;;;;;7.17;6.47;;;12.90;99.90;;;;;;5087055;28;20212;-37
2021/09/20 02:36:11;;;;;;;9.37;7.77;;;12.80;99.90;;;;;;5087357;28;20415;-37
2021/09/20 02:38:37;;;;;;;9.17;7.77;;;12.80;99.90;;;;;;5087347;28;20557;-37
2021/09/20 02:41:04;;;;;;;7.53;6.83;;;12.80;99.90;;;;;;5077379;28;20785;-37
2021/09/20 02:43:30;;;;;;;11.00;7.27;;;12.80;99.90;;;;;;5087093;28;20273;-38
2021/09/20 02:45:55;;;;;;;7.40;6.67;;;12.80;99.90;;;;;;5086776;28;21093;-37
2021/09/20 02:48:22;;;;;;;9.10;7.50;;;12.70;99.90;;;;;;5086794;28;20434;-38
2021/09/20 02:50:48;;;;;;;8.00;6.97;;;12.70;99.90;;;;;;5072995;28;20206;-40
2021/09/20 02:53:14;;;;;;;8.20;7.13;;;12.70;99.90;;;;;;5086076;28;20466;-37
2021/09/20 02:55:40;;;;;;;8.07;7.27;;;12.70;99.90;;;;;;5075137;28;20874;-37
2021/09/20 02:58:06;;;;;;;8.00;7.20;;;12.70;99.90;;;;;;5086309;28;20180;-38
2021/09/20 03:00:32;;;;;;;7.63;6.90;;;12.70;99.90;;;;;;5084835;28;20765;-39
2021/09/20 03:02:58;;;;;;;8.73;7.50;;;12.70;99.90;;;;;;5086489;28;20220;-38
2021/09/20 03:05:23;;;;;;;8.27;6.90;;;12.80;99.90;;;;;;5086794;28;20193;-37
2021/09/20 03:07:49;;;;;;;7.03;6.23;;;12.80;99.90;;;;;;5086300;28;20200;-37
2021/09/20 03:10:15;;;;;;;9.23;7.87;;;12.90;99.90;;;;;;5077211;28;20203;-38
2021/09/20 03:12:40;;;;;;;6.93;6.23;;;12.80;99.90;;;;;;5082590;28;20212;-38
2021/09/20 03:15:07;;;;;;;7.40;6.63;;;12.80;99.90;;;;;;5079215;28;20195;-38
2021/09/20 03:17:32;;;;;;;7.77;7.07;;;12.80;99.90;;;;;;5078534;28;20668;-38
2021/09/20 03:19:59;;;;;;;8.53;7.30;;;12.80;99.90;;;;;;5085600;28;20511;-38
2021/09/20 03:22:25;;;;;;;9.43;6.83;;;12.80;99.90;;;;;;5086411;28;20565;-38
2021/09/20 03:24:51;;;;;;;8.20;6.80;;;12.80;99.90;;;;;;5082148;28;20435;-37
2021/09/20 03:27:18;;;;;;;7.87;6.63;;;12.80;99.90;;;;;;5080472;28;20421;-38
2021/09/20 03:29:43;;;;;;;7.37;6.67;;;12.80;99.90;;;;;;5083123;28;20450;-39
2021/09/20 03:32:09;;;;;;;7.53;6.73;;;12.70;99.90;;;;;;5086403;28;20454;-37
2021/09/20 03:34:35;;;;;;;7.50;6.60;;;12.70;99.90;;;;;;5086009;28;20431;-38
2021/09/20 03:37:01;;;;;;;7.00;6.30;;;12.70;99.90;;;;;;5086601;28;20192;-38
2021/09/20 03:39:27;;;;;;;9.80;7.73;;;12.70;99.90;;;;;;5083874;28;20273;-37
2021/09/20 03:41:52;;;;;;;10.77;6.83;;;12.60;99.90;;;;;;5083047;28;20218;-38
2021/09/20 03:44:18;;;;;;;7.80;6.60;;;12.70;99.90;;;;;;5085511;28;20422;-37
2021/09/20 03:46:44;;;;;;;9.80;7.17;;;12.70;99.90;;;;;;5086065;28;20203;-38
2021/09/20 03:49:10;;;;;;;10.90;7.43;;;12.70;99.90;;;;;;5085306;28;20430;-38
2021/09/20 03:51:35;;;;;;;7.87;7.07;;;12.70;99.90;;;;;;5085922;28;20193;-37
2021/09/20 03:54:01;;;;;;;7.63;6.83;;;12.70;99.90;;;;;;5086212;28;20369;-38
2021/09/20 03:56:27;;;;;;;7.07;6.37;;;12.80;99.90;;;;;;5076672;28;20223;-38
2021/09/20 03:58:54;;;;;;;8.33;7.10;;;12.80;99.90;;;;;;5084898;28;20188;-37
2021/09/20 04:01:19;;;;;;;8.13;7.07;;;12.80;99.90;;;;;;5085541;28;20219;-38
2021/09/20 04:03:45;;;;;;;8.87;7.60;;;12.70;99.90;;;;;;5086365;28;20466;-37
2021/09/20 04:06:11;;;;;;;7.90;7.10;;;12.60;99.90;;;;;;5088567;28;20980;-38
2021/09/20 04:08:36;;;;;;;7.87;7.10;;;12.60;99.90;;;;;;5089681;28;20792;-38
2021/09/20 04:11:02;;;;;;;7.93;7.10;;;12.60;99.90;;;;;;5076031;28;20227;-37
2021/09/20 04:13:28;;;;;;;7.73;6.93;;;12.60;99.90;;;;;;5088981;28;20480;-39
2021/09/20 04:15:54;;;;;;;8.43;7.63;;;12.60;99.90;;;;;;5088092;28;20180;-38
2021/09/20 04:18:21;;;;;;;7.67;6.97;;;12.60;99.90;;;;;;5089650;28;20279;-37
2021/09/20 04:20:48;;;;;;;8.87;7.50;;;12.70;99.90;;;;;;5088950;28;20781;-39
2021/09/20 04:23:15;;;;;;;9.03;7.57;;;12.60;99.90;;;;;;5089556;28;20466;-37
2021/09/20 04:25:40;;;;;;;8.40;7.60;;;12.70;99.90;;;;;;5081106;28;20496;-37
2021/09/20 04:28:06;;;;;;;7.00;6.40;;;12.80;99.90;;;;;;5089099;28;20430;-38
2021/09/20 04:30:32;;;;;;;7.60;6.90;;;12.80;99.90;;;;;;5089308;28;20184;-37
2021/09/20 04:32:57;;;;;;;8.20;7.40;;;12.80;99.90;;;;;;5089394;28;20212;-37
2021/09/20 04:35:23;;;;;;;8.00;7.20;;;12.80;99.90;;;;;;5089869;28;20611;-38
2021/09/20 04:37:48;;;;;;;8.70;7.40;;;12.80;99.90;;;;;;5089248;28;20184;-37
2021/09/20 04:40:14;;;;;;;8.07;7.27;;;12.80;99.90;;;;;;5083883;28;20272;-38
2021/09/20 04:42:40;;;;;;;8.33;7.47;;;12.80;99.90;;;;;;5076874;28;20264;-38
2021/09/20 04:45:06;;;;;;;8.07;7.27;;;12.80;99.90;;;;;;5089057;28;20683;-38
2021/09/20 04:47:32;;;;;;;8.13;7.17;;;12.70;99.90;;;;;;5088823;28;20191;-37
2021/09/20 04:49:58;;;;;;;8.50;7.50;;;12.80;99.90;;;;;;5088077;28;20418;-38
2021/09/20 04:52:24;;;;;;;8.60;7.80;;;12.80;99.90;;;;;;5084896;28;20189;-37
2021/09/20 04:54:49;;;;;;;9.30;8.20;;;12.80;99.90;;;;;;5086486;28;20192;-38
2021/09/20 04:57:15;;;;;;;8.43;7.50;;;12.70;99.90;;;;;;5076856;28;20243;-39
2021/09/20 04:59:41;;;;;;;7.80;7.00;;;12.70;99.90;;;;;;5088275;28;20663;-38
2021/09/20 05:02:06;;;;;;;8.23;7.43;;;12.80;99.90;;;;;;5088885;28;20238;-37
2021/09/20 05:04:32;;;;;;;8.70;7.37;;;12.80;99.90;;;;;;5088639;28;20276;-38
2021/09/20 05:06:58;;;;;;;9.70;7.93;;;12.80;99.90;;;;;;5088461;28;20519;-37
2021/09/20 05:09:24;;;;;;;8.73;7.90;;;12.80;99.90;;;;;;5087639;28;20203;-39
2021/09/20 05:11:50;;;;;;;8.60;7.57;;;12.80;99.90;;;;;;5083075;28;20200;-37
2021/09/20 05:14:16;;;;;;;9.07;8.07;;;12.80;99.90;;;;;;5088303;28;21049;-37
2021/09/20 05:16:41;;;;;;;8.27;7.47;;;12.80;99.90;;;;;;5086721;28;20290;-38
2021/09/20 05:19:07;;;;;;;7.93;7.13;;;12.80;99.90;;;;;;5087498;28;20242;-38
2021/09/20 05:21:32;;;;;;;7.40;6.70;;;12.80;99.90;;;;;;5087559;28;20304;-38
2021/09/20 05:23:58;;;;;;;7.93;7.13;;;12.80;99.90;;;;;;5084390;28;20656;-38
2021/09/20 05:26:24;;;;;;;8.27;7.40;;;12.80;99.90;;;;;;5081817;28;20204;-39
2021/09/20 05:28:50;;;;;;;8.70;7.80;;;12.70;99.90;;;;;;5085358;28;20265;-37
2021/09/20 05:31:15;;;;;;;8.77;7.47;;;12.70;99.90;;;;;;5087669;28;20242;-37
2021/09/20 05:33:41;;;;;;;9.00;7.53;;;12.80;99.90;;;;;;5088284;28;20228;-37
2021/09/20 05:36:07;;;;;;;8.97;8.07;;;12.80;99.90;;;;;;5088512;28;20523;-37
2021/09/20 05:38:34;;;;;;;8.43;7.10;;;12.80;99.90;;;;;;5085784;28;20629;-37
2021/09/20 05:41:01;;;;;;;8.73;7.83;;;12.80;99.90;;;;;;5081393;28;20534;-37
2021/09/20 05:43:26;;;;;;;8.40;7.60;;;12.70;99.90;;;;;;5083964;28;20434;-37
2021/09/20 05:45:52;;;;;;;9.33;7.50;;;12.70;99.90;;;;;;5088113;28;20425;-37
2021/09/20 05:48:20;;;;;;;7.77;7.07;;;12.70;99.90;;;;;;5088130;28;20204;-40
2021/09/20 05:50:46;;;;;;;9.27;8.10;;;12.70;99.90;;;;;;5085350;28;20192;-38
2021/09/20 05:53:16;;;;;;;9.57;8.67;;;12.70;99.90;;;;;;5087994;28;20496;-37
2021/09/20 05:55:42;;;;;;;8.47;7.67;;;12.70;99.90;;;;;;5085484;28;22168;-37
2021/09/20 05:58:08;;;;;;;9.33;8.40;;;12.70;99.90;;;;;;5081423;28;20873;-37
2021/09/20 06:00:34;;;;;;;9.27;8.37;;;12.70;99.90;;;;;;5082005;28;20505;-38
2021/09/20 06:03:00;;;;;;;9.50;8.60;;;12.70;99.90;;;;;;5087829;28;20292;-37
2021/09/20 06:05:26;;;;;;;10.10;8.77;;;12.70;99.90;;;;;;5069266;28;20427;-37
2021/09/20 06:07:52;;;;;;;9.30;8.40;;;12.80;99.90;;;;;;5087062;28;20251;-37
2021/09/20 06:10:18;;;;;;;8.63;7.77;;;12.80;99.90;;;;;;5086761;28;20422;-37
2021/09/20 06:12:45;;;;;;;9.87;8.70;;;12.80;99.90;;;;;;5080606;28;20841;-37
2021/09/20 06:15:12;;;;;;;8.53;7.73;;;12.80;99.90;;;;;;5087499;28;20575;-37
2021/09/20 06:17:38;;;;;;;8.87;8.07;;;12.90;99.90;;;;;;5083979;28;20518;-37
2021/09/20 06:20:06;;;;;;;10.37;8.23;;;12.80;99.90;;;;;;5086655;28;20501;-38
2021/09/20 06:22:31;;;;;;;9.03;8.13;;;12.90;99.90;;;;;;5085667;28;20280;-37
2021/09/20 06:24:59;;;;;;;10.30;8.80;;;12.90;99.90;;;;;;5085127;28;20521;-37
2021/09/20 06:27:26;;;;;;;9.13;8.13;;;12.90;99.90;;;;;;5073059;28;20203;-38
2021/09/20 06:29:52;;;;;;;9.10;8.20;;;12.90;99.90;;;;;;5086367;28;20415;-37
2021/09/20 06:32:17;;;;;;;9.60;8.63;;;12.90;99.90;;;;;;5084296;28;20431;-38
2021/09/20 06:34:43;;;;;;;9.53;8.60;;;12.90;99.90;;;;;;5084259;28;20958;-38
2021/09/20 06:37:09;;;;;;;9.03;8.13;;;12.90;99.90;;;;;;5085459;28;20695;-38
2021/09/20 06:39:35;;;;;;;11.53;8.53;;;12.90;99.90;;;;;;5085716;28;20249;-37
2021/09/20 06:42:02;;;;;;;9.10;8.00;;;12.90;99.90;;;;;;5081601;28;20551;-37
2021/09/20 06:44:28;;;;;;;9.23;8.43;;;13.00;99.90;;;;;;5086358;28;20192;-38
2021/09/20 06:46:55;;;;;;;11.33;8.40;;;12.90;99.90;;;;;;5082036;28;20422;-37
2021/09/20 06:49:22;;;;;;;9.50;8.60;;;12.90;99.90;;;;;;5085741;28;20437;-37
2021/09/20 06:51:50;;;;;;;9.10;8.20;;;12.90;99.90;;;;;;5087052;28;21078;-37
2021/09/20 06:54:17;;;;;;;9.67;8.07;;;13.00;99.90;;;;;;5086663;28;20458;-37
2021/09/20 06:56:43;;;;;;;10.03;8.57;;;13.00;99.90;;;;;;5081466;28;20431;-38
2021/09/20 06:59:09;;;;;;;7.93;7.13;;;13.00;99.90;;;;;;5080595;28;20423;-38
2021/09/20 07:01:34;;;;;;;9.30;8.40;;;13.00;99.90;;;;;;5086427;28;20273;-37
2021/09/20 07:04:00;;;;;;;9.20;8.30;;;13.00;99.90;;;;;;5086580;28;20717;-38
2021/09/20 07:06:26;;;;;;;9.83;8.70;;;13.00;99.90;;;;;;5086438;28;20230;-40
2021/09/20 07:08:51;;;;;;;10.03;9.03;;;13.00;99.90;;;;;;5086108;28;20611;-37
2021/09/20 07:11:17;;;;;;;9.93;8.90;;;13.10;99.90;;;;;;5083087;28;20349;-38
2021/09/20 07:13:43;;;;;;;9.00;8.10;;;13.10;99.90;;;;;;5080229;28;20227;-37
2021/09/20 07:16:09;;;;;;;8.67;7.63;;;13.00;99.90;;;;;;5083566;28;20212;-39
2021/09/20 07:18:35;;;;;;;9.17;8.27;;;13.10;99.90;;;;;;5064199;28;20477;-38
2021/09/20 07:21:01;;;;;;;8.80;7.90;;;13.10;99.90;;;;;;5080243;28;20612;-38
2021/09/20 07:23:27;;;;;;;9.90;8.00;;;13.20;99.90;;;;;;5085768;28;20230;-38
2021/09/20 07:25:52;;;;;;;9.20;8.30;;;13.20;99.90;;;;;;5086071;28;20211;-38
2021/09/20 07:28:18;;;;;;;9.17;8.17;;;13.20;99.90;;;;;;5076161;28;20192;-38
2021/09/20 07:30:44;;;;;;;8.10;7.30;;;13.30;99.90;;;;;;5085402;28;20184;-38
2021/09/20 07:33:10;;;;;;;8.83;7.93;;;13.40;99.90;;;;;;5085939;28;20285;-37
2021/09/20 07:35:36;;;;;;;7.80;7.10;;;13.60;99.90;;;;;;5086077;28;20430;-41
2021/09/20 07:38:03;;;;;;;9.00;7.60;;;13.80;99.90;;;;;;5086190;28;20544;-38
2021/09/20 07:40:29;;;;;;;8.77;7.40;;;13.80;99.90;;;;;;5085285;28;20425;-38
2021/09/20 07:42:56;;;;;;;9.73;7.37;;;14.00;99.90;;;;;;5078861;28;20917;-38
2021/09/20 07:45:22;;;;;;;8.10;7.30;;;14.10;99.90;;;;;;5084218;28;20439;-38
2021/09/20 07:47:48;;;;;;;8.13;7.33;;;14.20;99.90;;;;;;5085665;28;20423;-38
2021/09/20 07:50:15;;;;;;;9.80;6.87;;;14.30;99.90;;;;;;5085037;28;20434;-38
2021/09/20 07:52:43;;;;;;;7.23;6.53;;;14.40;99.90;;;;;;5086321;28;20473;-38
2021/09/20 07:55:09;;;;;;;8.07;7.27;;;14.50;99.90;;;;;;5085763;28;20414;-37
2021/09/20 07:57:35;;;;;;;6.90;6.30;;;14.60;99.90;;;;;;5075747;28;21006;-38
2021/09/20 08:00:01;;;;;;;7.80;7.10;;;14.70;99.90;;;;;;5077753;28;20419;-38
2021/09/20 08:02:27;;;;;;;8.07;7.27;;;14.80;99.90;;;;;;5085539;28;20184;-37
2021/09/20 08:04:52;;;;;;;6.70;6.00;;;14.90;99.90;;;;;;5085977;28;20553;-38
2021/09/20 08:07:18;;;;;;;7.30;6.60;;;14.90;99.90;;;;;;5085673;28;20551;-38
2021/09/20 08:09:44;;;;;;;6.80;6.10;;;15.00;99.90;;;;;;5085133;28;20736;-38
2021/09/20 08:12:09;;;;;;;9.30;7.17;;;15.00;99.90;;;;;;5079878;28;20242;-37
2021/09/20 08:14:35;;;;;;;7.00;6.00;;;15.00;99.90;;;;;;5083169;28;20241;-37
2021/09/20 08:17:01;;;;;;;7.27;6.57;;;15.10;99.90;;;;;;5084111;28;20195;-37
2021/09/20 08:19:27;;;;;;;7.30;6.60;;;15.10;99.90;;;;;;5085255;28;20419;-37
2021/09/20 08:21:53;;;;;;;7.40;6.70;;;15.10;99.90;;;;;;5085536;28;20419;-38
2021/09/20 08:24:19;;;;;;;8.23;6.70;;;15.10;99.90;;;;;;5086081;28;20223;-37
2021/09/20 08:26:45;;;;;;;7.00;6.30;;;15.10;99.90;;;;;;5083783;28;20216;-37
2021/09/20 08:29:11;;;;;;;6.50;5.90;;;15.00;99.90;;;;;;5071693;28;20434;-38
2021/09/20 08:31:37;;;;;;;5.80;5.30;;;15.00;99.90;;;;;;5083885;28;20778;-37
2021/09/20 08:34:03;;;;;;;7.70;6.37;;;15.10;99.90;;;;;;5085574;28;20653;-38
2021/09/20 08:36:29;;;;;;;6.87;6.27;;;15.20;99.90;;;;;;5085712;28;20422;-37
2021/09/20 08:38:55;;;;;;;7.63;6.70;;;15.20;99.90;;;;;;5085221;28;20480;-38
2021/09/20 08:41:21;;;;;;;7.17;6.20;;;15.30;99.90;;;;;;5085609;28;20655;-37
2021/09/20 08:43:47;;;;;;;7.30;6.00;;;15.30;99.90;;;;;;5070353;28;20276;-38
2021/09/20 08:46:13;;;;;;;7.40;6.70;;;15.30;99.90;;;;;;5085076;28;20419;-38
2021/09/20 08:48:45;;;;;;;7.27;6.20;;;15.30;99.90;;;;;;5085447;28;20909;-37
2021/09/20 08:51:13;;;;;;;6.20;5.60;;;15.40;99.90;;;;;;5088083;28;20460;-37
2021/09/20 08:53:39;;;;;;;6.80;6.13;;;15.40;99.90;;;;;;5088989;28;20454;-38
2021/09/20 08:56:06;;;;;;;7.13;6.43;;;15.40;99.80;;;;;;5089413;28;20449;-39
2021/09/20 08:58:32;;;;;;;7.20;6.60;;;15.40;99.80;;;;;;5078891;28;20997;-38
2021/09/20 09:00:59;;;;;;;6.60;6.00;;;15.40;99.90;;;;;;5088658;28;20692;-38
2021/09/20 09:03:28;;;;;;;7.00;6.40;;;15.50;99.20;;;;;;5089004;28;20418;-38
2021/09/20 09:05:54;;;;;;;8.03;6.43;;;15.60;99.00;;;;;;5089221;28;20422;-37
2021/09/20 09:08:33;;;;;;;7.40;6.43;;;15.60;99.20;;;;;;5088490;28;20458;-38
2021/09/20 09:11:12;;;;;;;8.27;6.10;;;15.60;99.30;;;;;;5088149;28;20429;-38
2021/09/20 09:13:40;;;;;;;7.37;6.67;;;15.60;99.20;;;;;;5078708;28;20474;-38
2021/09/20 09:16:24;;;;;;;7.57;6.87;;;15.70;99.50;;;;;;5085585;28;20433;-38
2021/09/20 09:18:57;;;;;;;8.87;7.10;;;15.80;99.40;;;;;;5088555;28;20411;-37
2021/09/20 09:21:37;;;;;;;7.23;6.13;;;15.90;98.50;;;;;;5088701;28;20854;-38
2021/09/20 09:24:13;;;;;;;7.30;6.60;;;15.90;98.70;;;;;;5088600;28;20475;-37
2021/09/20 09:26:56;;;;;;;6.70;6.00;;;15.90;98.60;;;;;;5088770;28;20426;-38
2021/09/20 09:29:22;;;;;;;6.80;6.17;;;15.90;98.90;;;;;;5075362;28;20952;-38
2021/09/20 09:31:56;;;;;;;9.20;6.37;;;16.00;98.80;;;;;;5088273;28;20453;-38
2021/09/20 09:34:33;;;;;;;6.37;5.87;;;16.10;98.70;;;;;;5088281;28;20461;-38
2021/09/20 09:37:12;;;;;;;6.47;5.87;;;16.20;99.40;;;;;;5088769;28;20448;-38
2021/09/20 09:39:38;;;;;;;6.90;6.30;;;16.30;98.70;;;;;;5075457;28;20410;-38
2021/09/20 09:42:19;;;;;;;7.53;6.33;;;16.40;98.60;;;;;;5088538;28;20995;-38
2021/09/20 09:44:45;;;;;;;7.50;6.77;;;16.50;98.60;;;;;;5079593;28;20437;-38
2021/09/20 09:47:26;;;;;;;6.70;6.10;;;16.70;98.40;;;;;;5088262;28;20422;-38
2021/09/20 09:50:12;;;;;;;6.20;5.70;;;16.80;98.20;;;;;;5086415;28;20196;-38
2021/09/20 09:52:38;;;;;;;6.13;5.60;;;16.90;97.80;;;;;;5087908;28;20475;-39
2021/09/20 09:55:06;;;;;;;7.77;5.97;;;17.00;97.90;;;;;;5086430;28;20430;-37
2021/09/20 09:57:33;;;;;;;7.10;6.43;;;17.10;97.50;;;;;;5086252;28;20188;-39
2021/09/20 10:00:04;;;;;;;6.50;5.90;;;17.10;98.40;;;;;;5080772;28;20473;-38
2021/09/20 10:02:32;;;;;;;7.10;5.80;;;17.30;97.10;;;;;;5086455;28;20503;-38
2021/09/20 10:05:03;;;;;;;7.00;6.30;;;17.30;97.50;;;;;;5087773;28;20419;-38
2021/09/20 10:07:34;;;;;;;6.70;6.10;;;17.40;98.00;;;;;;5087420;28;20899;-39
2021/09/20 10:10:07;;;;;;;6.50;5.93;;;17.40;96.90;;;;;;5087239;28;20426;-38
2021/09/20 10:12:32;;;;;;;6.40;5.80;;;17.50;97.20;;;;;;5086717;28;20785;-38
2021/09/20 10:14:59;;;;;;;5.70;5.17;;;17.60;96.10;;;;;;5079260;28;20445;-38
2021/09/20 10:17:27;;;;;;;6.93;6.17;;;17.60;96.30;;;;;;5085721;28;20188;-38
2021/09/20 10:19:54;;;;;;;6.30;5.70;;;17.50;95.60;;;;;;5086580;28;20517;-38
2021/09/20 10:22:20;;;;;;;7.03;6.33;;;17.50;95.90;;;;;;5087542;28;20785;-38
2021/09/20 10:24:49;;;;;;;6.90;6.30;;;17.50;96.40;;;;;;5087481;28;20913;-41
2021/09/20 10:27:17;;;;;;;6.53;5.93;;;17.50;96.10;;;;;;5087270;28;20464;-39
2021/09/20 10:29:50;;;;;;;6.80;6.07;;;17.50;96.40;;;;;;5074016;28;20441;-38
2021/09/20 10:32:17;;;;;;;6.93;6.23;;;17.60;96.40;;;;;;5074907;28;20414;-38
2021/09/20 10:34:43;;;;;;;7.10;6.40;;;17.70;96.20;;;;;;5084380;28;20454;-38
2021/09/20 10:37:12;;;;;;;6.83;6.23;;;17.70;96.20;;;;;;5085398;28;20793;-38
2021/09/20 10:40:04;;;;;;;7.67;6.83;;;17.60;95.80;;;;;;5084824;28;20249;-38
2021/09/20 10:42:36;;;;;;;7.13;5.93;;;17.60;96.00;;;;;;5085097;28;20585;-38
2021/09/20 10:45:08;;;;;;;6.90;6.30;;;17.50;96.00;;;;;;5072399;28;20437;-38
2021/09/20 10:48:22;;;;;;;6.70;6.10;;;17.60;96.40;;;;;;5087221;28;20426;-38
2021/09/20 10:51:13;;;;;;;6.63;6.03;;;17.60;97.10;;;;;;5077534;28;20625;-38
2021/09/20 10:53:41;;;;;;;7.40;5.10;;;17.70;96.40;;;;;;5086837;28;20489;-38
2021/09/20 10:56:07;;;;;;;6.47;5.87;;;17.70;96.10;;;;;;5087302;28;20469;-38
2021/09/20 10:58:39;;;;;;;6.77;6.13;;;17.70;96.20;;;;;;5082388;28;20560;-37
2021/09/20 11:01:25;;;;;;;5.70;5.20;;;17.80;96.60;;;;;;5078420;28;20587;-38
2021/09/20 11:03:52;;;;;;;6.87;6.27;;;17.80;97.50;;;;;;5086599;28;20766;-38
2021/09/20 11:06:20;;;;;;;7.20;6.57;;;17.90;96.50;;;;;;5087143;28;20461;-38
2021/09/20 11:08:47;;;;;;;6.93;6.33;;;18.00;97.00;;;;;;5086414;28;20461;-38
2021/09/20 11:11:37;;;;;;;7.30;6.60;;;17.90;96.80;;;;;;5086402;28;20431;-39
2021/09/20 11:14:16;;;;;;;6.90;6.30;;;17.80;96.70;;;;;;5080125;28;20545;-38
2021/09/20 11:16:51;;;;;;;6.27;5.77;;;17.70;96.90;;;;;;5084205;28;20426;-39
2021/09/20 11:19:26;;;;;;;6.80;6.10;;;17.70;96.90;;;;;;5085575;28;20422;-38
2021/09/20 11:24:37;;;;;;;7.77;6.97;;;17.90;96.40;;;;;;5085870;28;20414;-38
2021/09/20 11:27:05;;;;;;;6.80;6.20;;;18.00;96.30;;;;;;5086600;28;20422;-37
2021/09/20 11:29:31;;;;;;;7.10;6.50;;;18.00;96.50;;;;;;5074656;28;20442;-38
2021/09/20 11:32:02;;;;;;;7.93;7.23;;;18.10;95.80;;;;;;5085799;28;20450;-37
2021/09/20 11:34:41;;;;;;;6.73;6.13;;;18.10;95.90;;;;;;5085725;28;20674;-38
2021/09/20 11:37:16;;;;;;;7.23;6.53;;;18.10;95.90;;;;;;5085486;28;20571;-39
2021/09/20 11:39:52;;;;;;;7.27;6.30;;;18.20;96.70;;;;;;5082839;28;20421;-38
2021/09/20 11:42:19;;;;;;;7.87;7.17;;;18.30;97.40;;;;;;5086190;28;20426;-38
2021/09/20 11:44:51;;;;;;;7.00;6.40;;;18.40;96.50;;;;;;5074844;28;20492;-38
2021/09/20 11:47:19;;;;;;;7.93;6.70;;;18.40;96.40;;;;;;5084536;28;20433;-43
2021/09/20 11:49:46;;;;;;;6.83;6.20;;;18.40;97.00;;;;;;5085516;28;20425;-38
2021/09/20 11:52:13;;;;;;;8.50;7.67;;;18.50;96.90;;;;;;5086323;28;20826;-41
2021/09/20 11:54:45;;;;;;;6.87;6.27;;;18.50;96.80;;;;;;5085873;28;20536;-38
2021/09/20 11:57:21;;;;;;;7.77;7.07;;;18.60;97.30;;;;;;5086041;28;20807;-38
2021/09/20 11:59:48;;;;;;;7.20;6.50;;;18.60;97.10;;;;;;5074715;28;20920;-42
2021/09/20 12:02:48;;;;;;;7.30;6.50;;;18.70;97.30;;;;;;5086203;28;20423;-38
2021/09/20 12:05:19;;;;;;;17.07;6.80;;;18.60;96.60;;;;;;5078961;28;20449;-41
2021/09/20 12:07:49;;;;;;;7.80;7.03;;;18.50;96.80;;;;;;5085794;28;20426;-37
2021/09/20 12:10:17;;;;;;;7.60;6.80;;;18.50;96.80;;;;;;5084700;28;20426;-39
2021/09/20 12:12:48;;;;;;;6.80;5.87;;;18.30;97.50;;;;;;5085549;28;20422;-37
2021/09/20 12:15:15;;;;;;;7.63;7.03;;;18.30;98.40;;;;;;5078659;28;20880;-38
2021/09/20 12:18:04;;;;;;;7.10;6.40;;;18.30;98.50;;;;;;5083680;28;20425;-37
2021/09/20 12:20:39;;;;;;;7.70;6.90;;;18.30;97.80;;;;;;5084381;28;20418;-37
2021/09/20 12:23:10;;;;;;;7.80;7.20;;;18.20;98.00;;;;;;5085170;28;20653;-37
2021/09/20 12:25:39;;;;;;;6.60;6.00;;;18.20;98.10;;;;;;5087854;28;20799;-38
2021/09/20 12:28:07;;;;;;;6.43;5.83;;;18.20;98.80;;;;;;5088984;28;20505;-37
2021/09/20 12:30:34;;;;;;;7.03;6.30;;;18.30;98.10;;;;;;5073157;28;20458;-38
2021/09/20 12:33:06;;;;;;;6.47;5.80;;;18.30;97.70;;;;;;5087770;28;20465;-38
2021/09/20 12:35:32;;;;;;;6.50;5.70;;;18.30;98.20;;;;;;5088496;28;20534;-37
2021/09/20 12:38:17;;;;;;;10.60;6.47;;;18.40;98.00;;;;;;5088090;28;20509;-38
2021/09/20 12:40:43;;;;;;;6.90;6.30;;;18.40;98.30;;;;;;5088950;28;20418;-38
2021/09/20 12:43:21;;;;;;;7.20;6.20;;;18.50;98.60;;;;;;5089990;28;20640;-38
2021/09/20 12:45:47;;;;;;;8.13;7.33;;;18.60;98.30;;;;;;5079996;28;20471;-37
2021/09/20 12:48:16;;;;;;;6.67;6.07;;;18.60;98.10;;;;;;5090013;28;20423;-37
2021/09/20 12:50:47;;;;;;;6.20;5.70;;;18.60;97.50;;;;;;5090737;28;20524;-37